Time;durP1;ratioP1;P1;durP2;ratioP2;P2;SDS_P1;SDS_P2;PMS_P1;PMS_P2;Temp;Humidity;BMP_temperature;BMP_pressure;BME280_temperature;BME280_humidity;BME280_pressure;Samples;Min_cycle;Max_cycle;Signal;HPM_P1;HPM_P2
2024/01/04 00:00:57;;;;;;;;;;;12.50;55.70;;;12.66;59.32;98385.06;5075566;28;19925;-33
2024/01/04 00:03:26;;;;;;;;;;;12.50;55.70;;;12.65;59.12;98389.22;5075645;28;20420;-33
2024/01/04 00:05:54;;;;;;;;;;;12.50;55.70;;;12.60;59.02;98395.47;5075093;28;19924;-33
2024/01/04 00:08:22;;;;;;;;;;;12.50;55.80;;;12.65;59.25;98404.28;5074620;28;19931;-33
2024/01/04 00:10:50;;;;;;;;;;;12.50;55.80;;;12.63;58.93;98405.81;5075818;28;19930;-34
2024/01/04 00:13:19;;;;;;;;;;;12.50;56.40;;;12.63;59.40;98410.81;5075236;28;20015;-36
2024/01/04 00:15:47;;;;;;;;;;;12.50;55.80;;;12.62;59.77;98399.00;5075600;28;19924;-34
2024/01/04 00:18:15;;;;;;;;;;;12.40;55.70;;;12.62;59.66;98404.03;5074797;28;20291;-36
2024/01/04 00:20:43;;;;;;;;;;;12.50;55.80;;;12.61;58.83;98407.28;5076976;28;19979;-33
2024/01/04 00:23:11;;;;;;;;;;;12.40;55.80;;;12.62;58.82;98419.09;5077965;28;19924;-33
2024/01/04 00:25:39;;;;;;;;;;;12.40;55.80;;;12.61;59.64;98422.38;5077200;28;19932;-33
2024/01/04 00:28:07;;;;;;;;;;;12.50;55.80;;;12.61;59.29;98422.38;5074664;28;19925;-32
2024/01/04 00:30:36;;;;;;;;;;;12.40;55.70;;;12.61;59.13;98426.50;5074818;28;19991;-31
2024/01/04 00:33:05;;;;;;;;;;;12.40;55.70;;;12.60;59.36;98425.63;5075149;28;19924;-35
2024/01/04 00:35:33;;;;;;;;;;;12.40;55.70;;;12.60;59.13;98430.66;5074911;28;19925;-32
2024/01/04 00:38:01;;;;;;;;;;;12.40;55.80;;;12.56;58.89;98426.13;5074713;28;19930;-41
2024/01/04 00:40:29;;;;;;;;;;;12.40;55.80;;;12.58;58.84;98437.19;5074612;28;20292;-34
2024/01/04 00:42:57;;;;;;;;;;;12.40;55.80;;;12.60;59.51;98440.69;5074433;28;19924;-33
2024/01/04 00:45:25;;;;;;;;;;;12.40;55.80;;;12.59;59.00;98448.97;5074313;28;19931;-33
2024/01/04 00:47:54;;;;;;;;;;;12.40;55.80;;;12.59;59.23;98448.97;5074375;28;19925;-34
2024/01/04 00:50:22;;;;;;;;;;;12.40;55.80;;;12.58;58.80;98457.28;5074268;28;19925;-33
2024/01/04 00:52:50;;;;;;;;;;;12.40;55.80;;;12.56;59.50;98452.88;5074367;28;20166;-32
2024/01/04 00:55:32;;;;;;;;;;;12.40;55.80;;;12.58;59.83;98467.31;5074607;28;19931;-36
2024/01/04 00:58:02;;;;;;;;;;;12.40;55.80;;;12.12;58.30;98378.69;5075828;28;19928;-33
2024/01/04 01:00:30;;;;;;;;;;;12.40;55.80;;;12.59;59.19;98469.06;5072384;28;20334;-31
2024/01/04 01:02:59;;;;;;;;;;;12.40;55.80;;;12.56;58.63;98458.78;5077352;28;20007;-32
2024/01/04 01:05:28;;;;;;;;;;;12.40;55.80;;;12.58;59.21;98477.38;5077312;28;19932;-33
2024/01/04 01:07:56;;;;;;;;;;;12.40;55.80;;;12.56;59.26;98473.84;5081978;28;19924;-35
2024/01/04 01:10:24;;;;;;;;;;;12.40;55.80;;;12.60;59.27;98480.00;5081133;28;19948;-34
2024/01/04 01:12:51;;;;;;;;;;;12.40;55.80;;;12.62;59.16;98488.56;5082463;28;20011;-33
2024/01/04 01:15:19;;;;;;;;;;;12.40;55.80;;;12.58;59.04;98482.41;5082552;28;19935;-34
2024/01/04 01:17:47;;;;;;;;;;;12.40;55.70;;;12.62;59.55;98504.50;5082892;28;19934;-34
2024/01/04 01:20:17;;;;;;;;;;;12.40;55.70;;;12.53;59.52;98490.25;5081492;28;20334;-34
2024/01/04 01:22:45;;;;;;;;;;;12.40;55.70;;;12.61;59.48;98502.75;5081491;28;19999;-37
2024/01/04 01:25:13;;;;;;;;;;;12.50;55.70;;;12.63;59.38;98513.81;5079241;28;19968;-34
2024/01/04 01:27:40;;;;;;;;;;;12.50;55.80;;;12.60;59.71;98516.06;5076327;28;19925;-31
2024/01/04 01:30:09;;;;;;;;;;;12.50;55.70;;;12.60;59.22;98526.09;5076309;28;19928;-32
2024/01/04 01:32:38;;;;;;;;;;;12.40;55.70;;;12.61;58.56;98522.84;5072979;28;19933;-34
2024/01/04 01:35:08;;;;;;;;;;;12.50;55.70;;;12.63;59.27;98536.44;5073174;28;19986;-35
2024/01/04 01:37:38;;;;;;;;;;;12.50;55.70;;;12.63;59.04;98536.44;5072792;28;19924;-34
2024/01/04 01:40:08;;;;;;;;;;;12.50;55.70;;;12.63;59.10;98546.47;5073811;28;19932;-34
2024/01/04 01:42:36;;;;;;;;;;;12.50;55.70;;;12.63;59.38;98543.97;5074991;28;20288;-33
2024/01/04 01:45:04;;;;;;;;;;;12.50;55.60;;;12.64;58.18;98550.75;5072097;28;20011;-35
2024/01/04 01:47:32;;;;;;;;;;;12.50;55.60;;;12.60;59.08;98553.72;5072349;28;19928;-33
2024/01/04 01:50:00;;;;;;;;;;;12.50;55.70;;;12.63;59.10;98556.53;5072227;28;20012;-33
2024/01/04 01:52:28;;;;;;;;;;;12.50;55.60;;;12.64;58.38;98563.31;5072328;28;19924;-32
2024/01/04 01:54:58;;;;;;;;;;;12.50;55.60;;;12.63;58.87;98564.06;5072332;28;19925;-33
2024/01/04 01:57:27;;;;;;;;;;;12.50;55.60;;;12.57;59.30;98558.50;5071929;28;20393;-37
2024/01/04 01:59:55;;;;;;;;;;;12.50;55.70;;;12.63;58.77;98565.69;5066770;28;19925;-33
2024/01/04 02:02:23;;;;;;;;;;;12.50;55.70;;;12.63;58.73;98566.56;5072461;28;19924;-33
2024/01/04 02:04:51;;;;;;;;;;;12.50;55.70;;;12.63;59.28;98571.59;5064850;28;20062;-32
2024/01/04 02:07:20;;;;;;;;;;;12.50;55.70;;;12.63;58.66;98580.75;5072527;28;19970;-36
2024/01/04 02:09:48;;;;;;;;;;;12.50;55.70;;;12.62;59.20;98584.91;5071804;28;19929;-33
2024/01/04 02:12:17;;;;;;;;;;;12.40;55.60;;;12.61;58.80;98590.66;5072732;28;19931;-32
2024/01/04 02:14:45;;;;;;;;;;;12.50;55.70;;;12.61;59.00;98598.22;5072931;28;19939;-33
2024/01/04 02:17:13;;;;;;;;;;;12.40;55.60;;;12.62;59.14;98599.97;5072548;28;19925;-33
2024/01/04 02:19:41;;;;;;;;;;;12.50;55.70;;;12.62;58.60;98605.00;5071891;28;20031;-33
2024/01/04 02:22:09;;;;;;;;;;;12.50;55.70;;;12.61;58.76;98598.22;5073473;28;19929;-35
2024/01/04 02:24:38;;;;;;;;;;;12.40;55.70;;;12.61;58.31;98603.22;5076596;28;19937;-34
2024/01/04 02:27:06;;;;;;;;;;;12.40;55.70;;;12.61;58.84;98610.75;5076853;28;20015;-35
2024/01/04 02:29:34;;;;;;;;;;;12.40;55.80;;;12.61;59.27;98623.31;5075735;28;19924;-35
2024/01/04 02:32:02;;;;;;;;;;;12.40;55.70;;;12.56;58.97;98619.53;5076364;28;20137;-33
2024/01/04 02:34:30;;;;;;;;;;;12.40;55.80;;;12.60;59.27;98619.03;5076172;28;19931;-32
2024/01/04 02:36:58;;;;;;;;;;;12.40;55.80;;;12.60;59.25;98626.59;5076017;28;20066;-35
2024/01/04 02:39:26;;;;;;;;;;;12.40;55.70;;;12.58;59.72;98628.09;5075962;28;19930;-40
2024/01/04 02:41:56;;;;;;;;;;;12.40;55.80;;;12.60;59.41;98636.63;5076287;28;20455;-36
2024/01/04 02:44:23;;;;;;;;;;;12.40;55.80;;;12.60;58.82;98641.66;5076135;28;19985;-33
2024/01/04 02:46:51;;;;;;;;;;;12.40;55.80;;;12.60;58.82;98646.69;5076135;28;19999;-32
2024/01/04 02:49:20;;;;;;;;;;;12.40;55.80;;;12.60;59.04;98654.22;5075338;28;20011;-33
2024/01/04 02:51:48;;;;;;;;;;;12.40;55.70;;;12.61;59.39;98653.47;5076391;28;20355;-33
2024/01/04 02:54:16;;;;;;;;;;;12.40;55.70;;;12.61;59.33;98658.50;5076847;28;19979;-34
2024/01/04 02:56:44;;;;;;;;;;;12.40;55.70;;;12.61;58.82;98668.53;5076091;28;19924;-31
2024/01/04 02:59:13;;;;;;;;;;;12.40;55.70;;;12.61;58.92;98672.69;5072663;28;19925;-34
2024/01/04 03:01:43;;;;;;;;;;;12.40;55.70;;;12.60;59.11;98679.34;5075411;28;20016;-36
2024/01/04 03:04:11;;;;;;;;;;;12.40;55.70;;;12.61;59.01;98688.66;5075455;28;20350;-34
2024/01/04 03:06:39;;;;;;;;;;;12.40;55.70;;;12.61;58.62;98693.66;5075523;28;20019;-34
2024/01/04 03:09:07;;;;;;;;;;;12.40;55.80;;;12.61;59.18;98693.66;5074947;28;20020;-34
2024/01/04 03:11:35;;;;;;;;;;;12.40;55.80;;;12.62;59.38;98697.94;5075095;28;19931;-34
2024/01/04 03:14:03;;;;;;;;;;;12.40;55.70;;;12.60;59.60;98712.00;5071156;28;19925;-34
2024/01/04 03:16:34;;;;;;;;;;;12.50;55.80;;;12.62;59.30;98730.59;5072305;28;20008;-33
2024/01/04 03:19:02;;;;;;;;;;;12.40;55.70;;;12.62;58.82;98725.59;5074981;28;19931;-34
2024/01/04 03:21:30;;;;;;;;;;;12.50;55.80;;;12.62;59.63;98725.59;5075352;28;20023;-33
2024/01/04 03:23:58;;;;;;;;;;;12.50;55.80;;;12.61;59.20;98736.38;5075336;28;19947;-32
2024/01/04 03:26:26;;;;;;;;;;;12.40;55.80;;;12.62;58.82;98739.78;5075202;28;20388;-33
2024/01/04 03:28:53;;;;;;;;;;;12.40;55.80;;;12.61;59.70;98743.91;5075117;28;20381;-34
2024/01/04 03:31:21;;;;;;;;;;;12.40;55.80;;;12.62;58.94;98748.19;5079550;28;20384;-43
2024/01/04 03:33:51;;;;;;;;;;;12.50;55.80;;;12.60;59.45;98752.19;5096723;28;19932;-38
2024/01/04 03:36:19;;;;;;;;;;;12.40;55.80;;;12.61;58.80;98758.97;5096830;28;19925;-37
2024/01/04 03:38:48;;;;;;;;;;;12.40;55.70;;;12.60;58.82;98756.31;5095851;28;19956;-37
2024/01/04 03:41:16;;;;;;;;;;;12.50;55.80;;;12.60;59.20;98771.41;5096184;28;19925;-38
2024/01/04 03:43:43;;;;;;;;;;;12.40;55.70;;;12.60;59.75;98769.78;5085283;28;19932;-34
2024/01/04 03:46:11;;;;;;;;;;;12.40;55.80;;;12.59;58.69;98775.53;5074753;28;20015;-34
2024/01/04 03:48:42;;;;;;;;;;;12.40;55.80;;;12.59;59.29;98767.13;5074109;28;19925;-33
2024/01/04 03:51:12;;;;;;;;;;;12.40;55.80;;;12.58;59.77;98783.84;5076478;28;19932;-32
2024/01/04 03:53:40;;;;;;;;;;;12.40;55.80;;;12.59;59.60;98789.72;5075186;28;19932;-35
2024/01/04 03:56:08;;;;;;;;;;;12.40;55.70;;;12.58;58.79;98793.88;5074375;28;20309;-34
2024/01/04 03:58:36;;;;;;;;;;;12.40;55.70;;;12.57;58.93;98794.63;5074400;28;20388;-34
2024/01/04 04:01:04;;;;;;;;;;;12.40;55.70;;;12.58;59.29;98798.91;5069598;28;19925;-36
2024/01/04 04:03:32;;;;;;;;;;;12.40;55.70;;;12.58;59.28;98801.44;5076880;28;19924;-37
2024/01/04 04:06:05;;;;;;;;;;;12.40;55.70;;;12.58;58.77;98803.94;5077268;28;19928;-36
2024/01/04 04:08:34;;;;;;;;;;;12.40;55.70;;;12.58;58.63;98808.06;5075210;28;19978;-33
2024/01/04 04:11:02;;;;;;;;;;;12.40;55.70;;;12.58;59.36;98813.09;5076724;28;19925;-35
2024/01/04 04:13:32;;;;;;;;;;;12.40;55.70;;;12.59;58.93;98825.78;5078080;28;19951;-33
2024/01/04 04:16:02;;;;;;;;;;;12.40;55.60;;;12.59;58.69;98828.28;5071285;28;19928;-33
2024/01/04 04:18:29;;;;;;;;;;;12.40;55.60;;;12.61;58.89;98839.38;5076651;28;19994;-32
2024/01/04 04:20:58;;;;;;;;;;;12.40;55.60;;;12.61;59.08;98821.78;5067728;28;19924;-34
2024/01/04 04:23:25;;;;;;;;;;;12.40;55.50;;;12.61;58.10;98844.41;5076735;28;19924;-33
2024/01/04 04:25:55;;;;;;;;;;;12.40;55.50;;;12.62;58.61;98846.19;5075224;28;20023;-33
2024/01/04 04:28:23;;;;;;;;;;;12.50;55.50;;;12.64;58.83;98843.81;5074298;28;19932;-33
2024/01/04 04:30:51;;;;;;;;;;;12.50;55.50;;;12.64;58.30;98849.72;5073836;28;19978;-35
2024/01/04 04:33:19;;;;;;;;;;;12.50;55.50;;;12.64;58.95;98854.75;5074492;28;19932;-34
2024/01/04 04:35:46;;;;;;;;;;;12.50;55.50;;;12.64;58.18;98869.81;5073679;28;19928;-33
2024/01/04 04:38:25;;;;;;;;;;;12.50;55.50;;;12.65;58.50;98866.53;5073508;28;19932;-33
2024/01/04 04:40:55;;;;;;;;;;;12.50;55.50;;;12.59;58.80;98850.91;5073834;28;19983;-33
2024/01/04 04:43:23;;;;;;;;;;;12.50;55.40;;;12.64;58.93;98869.81;5073807;28;19924;-36
2024/01/04 04:45:50;;;;;;;;;;;12.50;55.40;;;12.67;58.37;98870.09;5072833;28;20028;-36
2024/01/04 04:48:18;;;;;;;;;;;12.50;55.40;;;12.66;58.35;98873.34;5072925;28;20571;-33
2024/01/04 04:50:46;;;;;;;;;;;12.50;55.40;;;12.64;58.65;98874.84;5073276;28;19931;-33
2024/01/04 04:53:14;;;;;;;;;;;12.50;55.40;;;12.68;58.28;98876.91;5073453;28;19932;-33
2024/01/04 04:55:42;;;;;;;;;;;12.50;55.30;;;12.67;57.85;98890.19;5073631;28;19925;-35
2024/01/04 04:58:12;;;;;;;;;;;12.50;55.40;;;12.68;59.02;98897.00;5072936;28;19928;-34
2024/01/04 05:00:40;;;;;;;;;;;12.50;55.30;;;12.66;58.25;98898.47;5070744;28;19935;-33
2024/01/04 05:03:08;;;;;;;;;;;12.50;55.30;;;12.62;58.37;98898.94;5072728;28;20047;-35
2024/01/04 05:05:36;;;;;;;;;;;12.50;55.30;;;12.66;59.14;98906.00;5098752;22;19924;-35
2024/01/04 05:08:05;;;;;;;;;;;12.50;55.40;;;12.66;58.90;98908.50;5069095;28;19928;-35
2024/01/04 05:10:33;;;;;;;;;;;12.50;55.30;;;12.65;58.66;98911.75;5072929;28;20051;-35
2024/01/04 05:13:01;;;;;;;;;;;12.50;55.40;;;12.64;57.70;98914.16;5065025;28;20061;-35
2024/01/04 05:15:30;;;;;;;;;;;12.50;55.40;;;12.63;58.60;98923.31;5074686;28;19956;-36
2024/01/04 05:17:58;;;;;;;;;;;12.50;55.30;;;12.63;59.20;98928.34;5064129;28;19925;-35
2024/01/04 05:20:26;;;;;;;;;;;12.50;55.40;;;12.64;58.36;98932.63;5059213;28;19928;-35
2024/01/04 05:22:54;;;;;;;;;;;12.50;55.40;;;12.64;58.58;98930.13;5052987;28;20027;-35
2024/01/04 05:25:22;;;;;;;;;;;12.50;55.30;;;12.62;58.47;98929.09;5053143;28;20007;-35
2024/01/04 05:27:50;;;;;;;;;;;12.50;55.30;;;12.62;58.68;98926.56;5052229;28;20011;-35
2024/01/04 05:30:18;;;;;;;;;;;12.40;55.30;;;12.61;58.19;98942.38;5052134;28;19924;-35
2024/01/04 05:32:47;;;;;;;;;;;12.40;55.30;;;12.59;58.63;98941.34;5052518;28;20425;-35
2024/01/04 05:35:15;;;;;;;;;;;12.40;55.30;;;12.60;58.67;98948.13;5052545;28;19932;-35
2024/01/04 05:37:43;;;;;;;;;;;12.40;55.30;;;12.59;58.71;98941.34;5052158;28;20012;-34
2024/01/04 05:40:12;;;;;;;;;;;12.40;55.30;;;12.60;58.46;98953.16;5052286;28;19968;-35
2024/01/04 05:42:39;;;;;;;;;;;12.40;55.30;;;12.58;58.55;98959.69;5052372;28;19947;-35
2024/01/04 05:45:08;;;;;;;;;;;12.40;55.40;;;12.58;58.94;98964.72;5052189;28;20578;-35
2024/01/04 05:47:37;;;;;;;;;;;12.40;55.40;;;12.57;58.33;98962.06;5052530;28;19936;-35
2024/01/04 05:50:07;;;;;;;;;;;12.40;55.40;;;12.57;59.07;98957.91;5044122;28;19929;-35
2024/01/04 05:52:35;;;;;;;;;;;12.40;55.40;;;12.57;58.93;98967.97;5052355;28;19929;-35
2024/01/04 05:55:04;;;;;;;;;;;12.40;55.50;;;12.56;59.06;98966.19;5044334;28;19925;-35
2024/01/04 05:57:32;;;;;;;;;;;12.40;55.50;;;12.57;58.76;98972.09;5052058;28;19925;-35
2024/01/04 06:00:00;;;;;;;;;;;12.40;55.40;;;12.58;59.04;98974.78;5053941;28;19956;-35
2024/01/04 06:02:28;;;;;;;;;;;12.40;55.40;;;12.59;59.02;98979.03;5052645;28;19987;-35
2024/01/04 06:04:56;;;;;;;;;;;12.40;55.40;;;12.59;58.69;98994.09;5051933;28;19932;-35
2024/01/04 06:07:25;;;;;;;;;;;12.40;55.40;;;12.60;58.46;98998.38;5051384;28;20016;-34
2024/01/04 06:09:56;;;;;;;;;;;12.40;55.40;;;12.61;58.86;99010.22;5051217;28;20020;-35
2024/01/04 06:12:24;;;;;;;;;;;12.40;55.30;;;12.62;58.69;99011.09;5052009;28;19925;-35
2024/01/04 06:14:52;;;;;;;;;;;12.40;55.40;;;12.61;58.20;99020.25;5051920;28;19994;-35
2024/01/04 06:17:20;;;;;;;;;;;12.40;55.30;;;12.62;58.60;99027.06;5051916;28;20403;-35
2024/01/04 06:19:48;;;;;;;;;;;12.50;55.30;;;12.64;58.29;99030.63;5051049;28;19932;-35
2024/01/04 06:22:16;;;;;;;;;;;12.50;55.40;;;12.64;58.67;99025.59;5051709;28;19924;-35
2024/01/04 06:24:46;;;;;;;;;;;12.50;55.30;;;12.66;57.86;99040.78;5051743;28;19925;-35
2024/01/04 06:27:14;;;;;;;;;;;12.50;55.30;;;12.66;58.47;99041.69;5051796;28;20421;-35
2024/01/04 06:29:44;;;;;;;;;;;12.50;55.20;;;12.66;57.70;99045.81;5051104;28;20011;-35
2024/01/04 06:32:12;;;;;;;;;;;12.50;55.20;;;12.66;58.03;99048.34;5051676;28;19929;-35
2024/01/04 06:34:41;;;;;;;;;;;12.50;55.20;;;12.66;58.42;99055.88;5051219;28;20315;-35
2024/01/04 06:37:09;;;;;;;;;;;12.50;55.30;;;12.65;58.59;99054.97;5051580;28;20392;-35
2024/01/04 06:39:38;;;;;;;;;;;12.50;55.30;;;12.65;58.45;99054.97;5051504;28;20376;-35
2024/01/04 06:42:07;;;;;;;;;;;12.50;55.20;;;12.64;57.69;99055.75;5052921;28;19975;-35
2024/01/04 06:44:35;;;;;;;;;;;12.50;55.30;;;12.64;57.95;99055.75;5062234;28;19932;-35
2024/01/04 06:47:14;;;;;;;;;;;12.50;55.30;;;12.62;58.41;99063.88;5053690;28;20403;-34
2024/01/04 06:49:42;;;;;;;;;;;12.50;55.30;;;12.59;58.75;99066.94;5051102;28;19932;-35
2024/01/04 06:52:11;;;;;;;;;;;12.40;55.30;;;12.58;58.89;99077.78;5051477;28;19931;-35
2024/01/04 06:54:39;;;;;;;;;;;12.40;55.40;;;12.57;58.78;99083.53;5051625;28;19960;-35
2024/01/04 06:57:08;;;;;;;;;;;12.40;55.30;;;12.56;59.07;99096.81;5043308;28;20003;-35
2024/01/04 06:59:36;;;;;;;;;;;12.40;55.40;;;12.56;58.62;99089.28;5050690;28;19931;-35
2024/01/04 07:02:04;;;;;;;;;;;12.40;55.30;;;12.57;58.50;99093.56;5051466;28;19925;-35
2024/01/04 07:04:33;;;;;;;;;;;12.40;55.40;;;12.57;59.25;99103.63;5051323;28;19924;-35
2024/01/04 07:07:01;;;;;;;;;;;12.40;55.40;;;12.57;59.36;99108.66;5043441;28;19980;-35
2024/01/04 07:09:29;;;;;;;;;;;12.40;55.30;;;12.56;58.30;99106.88;5053564;28;19925;-34
2024/01/04 07:11:57;;;;;;;;;;;12.40;55.40;;;12.59;58.34;99112.19;5054627;28;19984;-35
2024/01/04 07:14:26;;;;;;;;;;;12.40;55.30;;;12.57;58.40;99113.69;5055064;28;19976;-35
2024/01/04 07:16:54;;;;;;;;;;;12.40;55.20;;;12.59;58.72;99127.25;5054741;28;19928;-35
2024/01/04 07:19:23;;;;;;;;;;;12.40;55.20;;;12.59;58.58;99127.25;5054411;28;19994;-35
2024/01/04 07:21:51;;;;;;;;;;;12.40;55.30;;;12.60;58.16;99129.03;5054635;28;19924;-35
2024/01/04 07:24:20;;;;;;;;;;;12.40;55.20;;;12.62;58.61;99135.09;5054708;28;19925;-36
2024/01/04 07:26:48;;;;;;;;;;;12.40;55.20;;;12.66;58.70;99137.16;5054457;28;19932;-35
2024/01/04 07:29:16;;;;;;;;;;;12.50;55.20;;;12.69;58.08;99145.00;5054735;28;20011;-35
2024/01/04 07:31:46;;;;;;;;;;;12.50;55.10;;;12.74;58.48;99143.84;5055040;28;19975;-35
2024/01/04 07:34:14;;;;;;;;;;;12.50;55.00;;;12.77;58.02;99149.13;5054504;28;19925;-35
2024/01/04 07:36:42;;;;;;;;;;;12.60;55.00;;;12.84;57.28;99141.47;5054616;28;19924;-36
2024/01/04 07:39:10;;;;;;;;;;;12.60;54.90;;;12.90;57.52;99147.06;5045726;28;20457;-35
2024/01/04 07:41:38;;;;;;;;;;;12.60;54.80;;;12.96;57.41;99153.47;5055007;28;19928;-35
2024/01/04 07:44:06;;;;;;;;;;;12.60;54.70;;;12.99;57.19;99161.28;5054388;28;19925;-35
2024/01/04 07:46:34;;;;;;;;;;;12.70;54.70;;;13.01;56.84;99159.81;5054342;28;19931;-35
2024/01/04 07:49:04;;;;;;;;;;;12.70;54.60;;;13.03;57.51;99163.34;5053453;28;19931;-35
2024/01/04 07:51:32;;;;;;;;;;;12.70;54.50;;;13.00;56.90;99163.94;5054162;28;20396;-35
2024/01/04 07:54:00;;;;;;;;;;;12.70;54.50;;;12.99;57.37;99181.38;5054333;28;19929;-35
2024/01/04 07:56:28;;;;;;;;;;;12.70;54.50;;;12.98;57.56;99184.63;5053989;28;20004;-35
2024/01/04 07:58:56;;;;;;;;;;;12.70;54.50;;;12.96;57.67;99182.00;5053690;28;19931;-35
2024/01/04 08:01:24;;;;;;;;;;;12.70;54.50;;;12.94;57.79;99182.56;5054068;28;19925;-35
2024/01/04 08:03:52;;;;;;;;;;;12.70;54.50;;;12.89;57.88;99189.69;5053911;28;20092;-35
2024/01/04 08:06:21;;;;;;;;;;;12.70;54.60;;;12.85;58.06;99198.53;5049039;28;19928;-35
2024/01/04 08:08:50;;;;;;;;;;;12.70;54.70;;;12.82;58.07;99203.28;5051117;28;20384;-36
2024/01/04 08:11:18;;;;;;;;;;;12.70;54.70;;;12.80;57.75;99194.69;5060375;28;19925;-36
2024/01/04 08:13:46;;;;;;;;;;;12.60;54.70;;;12.77;57.79;99204.44;5064670;28;20070;-36
2024/01/04 08:16:14;;;;;;;;;;;12.60;54.80;;;12.74;57.79;99204.16;5061628;28;19924;-35
2024/01/04 08:18:42;;;;;;;;;;;12.60;54.90;;;12.72;57.81;99205.59;5054288;28;19967;-35
2024/01/04 08:21:10;;;;;;;;;;;12.60;55.00;;;12.68;57.92;99208.56;5044723;28;20304;-35
2024/01/04 08:23:41;;;;;;;;;;;12.50;54.90;;;12.67;58.64;99211.81;5054272;28;19925;-36
2024/01/04 08:26:10;;;;;;;;;;;12.50;55.00;;;12.65;58.36;99217.41;5053334;28;20289;-36
2024/01/04 08:28:38;;;;;;;;;;;12.50;55.00;;;12.62;58.60;99225.56;5062945;28;19947;-36
2024/01/04 08:31:07;;;;;;;;;;;12.50;55.00;;;12.62;58.76;99232.19;5064437;28;19979;-36
2024/01/04 08:33:35;;;;;;;;;;;12.50;55.10;;;12.60;58.48;99237.06;5055258;28;19925;-36
2024/01/04 08:36:03;;;;;;;;;;;12.50;55.10;;;12.57;59.07;99239.28;5053325;28;20343;-36
2024/01/04 08:38:31;;;;;;;;;;;12.40;55.10;;;12.56;58.68;99236.63;5052757;28;19925;-36
2024/01/04 08:41:01;;;;;;;;;;;12.40;55.10;;;12.52;58.74;99240.44;5053402;28;19960;-36
2024/01/04 08:43:29;;;;;;;;;;;12.40;55.20;;;12.52;58.93;99250.47;5053257;28;19967;-36
2024/01/04 08:45:59;;;;;;;;;;;12.40;55.30;;;12.50;58.21;99249.47;5052575;28;20414;-37
2024/01/04 08:48:27;;;;;;;;;;;12.30;55.20;;;12.49;58.53;99250.19;5053061;28;19971;-36
2024/01/04 08:50:55;;;;;;;;;;;12.30;55.30;;;12.48;59.28;99259.34;5052892;28;20458;-36
2024/01/04 08:53:23;;;;;;;;;;;12.30;55.30;;;12.47;58.69;99256.69;5053302;28;19925;-36
2024/01/04 08:55:51;;;;;;;;;;;12.30;55.30;;;12.46;58.80;99255.78;5053563;28;19963;-35
2024/01/04 08:58:20;;;;;;;;;;;12.30;55.30;;;12.49;58.48;99260.25;5062503;28;19960;-36
2024/01/04 09:00:48;;;;;;;;;;;12.30;55.30;;;12.48;58.26;99269.41;5054399;28;19931;-36
2024/01/04 09:03:20;;;;;;;;;;;12.30;55.30;;;12.49;58.72;99277.81;5053085;28;20038;-35
2024/01/04 09:05:48;;;;;;;;;;;12.30;55.20;;;12.52;58.46;99269.72;5052630;28;19947;-36
2024/01/04 09:08:16;;;;;;;;;;;12.40;55.30;;;12.54;58.24;99279.16;5052342;28;19925;-36
2024/01/04 09:10:44;;;;;;;;;;;12.40;55.30;;;12.57;58.55;99284.50;5052715;28;20028;-35
2024/01/04 09:13:12;;;;;;;;;;;12.40;55.20;;;12.62;58.44;99282.47;5053166;28;19978;-36
2024/01/04 09:15:41;;;;;;;;;;;12.40;55.20;;;12.64;57.48;99281.00;5052769;28;19975;-36
2024/01/04 09:18:09;;;;;;;;;;;12.40;55.00;;;12.68;58.08;99283.06;5052167;28;19947;-35
2024/01/04 09:20:37;;;;;;;;;;;12.50;55.20;;;12.73;57.37;99286.91;5052795;28;20011;-36
2024/01/04 09:23:06;;;;;;;;;;;12.50;55.00;;;12.73;58.24;99292.84;5052321;28;19925;-36
2024/01/04 09:25:34;;;;;;;;;;;12.50;54.90;;;12.77;58.30;99299.94;5052106;28;20020;-36
2024/01/04 09:28:02;;;;;;;;;;;12.50;54.90;;;12.79;57.98;99303.50;5052727;28;19925;-36
2024/01/04 09:30:30;;;;;;;;;;;12.60;54.90;;;12.81;58.01;99307.06;5052441;28;20015;-36
2024/01/04 09:33:00;;;;;;;;;;;12.60;54.80;;;12.82;58.00;99308.84;5052074;28;20441;-36
2024/01/04 09:35:28;;;;;;;;;;;12.60;54.80;;;12.84;57.26;99317.41;5052400;28;19924;-36
2024/01/04 09:37:56;;;;;;;;;;;12.60;54.80;;;12.84;57.61;99317.41;5051946;28;19924;-36
2024/01/04 09:40:24;;;;;;;;;;;12.60;54.70;;;12.84;57.37;99317.41;5052173;28;19931;-36
2024/01/04 09:42:52;;;;;;;;;;;12.70;54.70;;;12.85;57.92;99323.31;5051983;28;19932;-36
2024/01/04 09:45:21;;;;;;;;;;;12.60;54.70;;;12.81;57.44;99322.13;5051920;28;19978;-36
2024/01/04 09:47:51;;;;;;;;;;;12.60;54.70;;;12.81;58.16;99332.19;5052072;28;19924;-36
2024/01/04 09:50:20;;;;;;;;;;;12.60;54.70;;;12.81;57.36;99332.19;5043476;28;19932;-36
2024/01/04 09:52:48;;;;;;;;;;;12.60;54.80;;;12.79;58.16;99333.66;5052070;28;19925;-35
2024/01/04 09:55:18;;;;;;;;;;;12.60;54.80;;;12.76;57.28;99338.41;5043841;28;20277;-36
2024/01/04 09:57:46;;;;;;;;;;;12.60;54.80;;;12.76;57.43;99343.41;5051979;28;19932;-36
2024/01/04 10:00:15;;;;;;;;;;;12.60;54.90;;;12.76;57.92;99345.94;5051430;28;20015;-37
2024/01/04 10:02:43;;;;;;;;;;;12.60;54.90;;;12.76;57.97;99350.97;5051740;28;19925;-36
2024/01/04 10:05:13;;;;;;;;;;;12.50;54.80;;;12.74;57.68;99352.41;5051420;28;19937;-36
2024/01/04 10:07:45;;;;;;;;;;;12.50;54.80;;;12.73;57.57;99353.16;5051898;28;19978;-36
2024/01/04 10:10:14;;;;;;;;;;;12.60;54.80;;;12.71;57.82;99352.09;5051066;28;20019;-36
2024/01/04 10:12:42;;;;;;;;;;;12.60;54.80;;;12.70;57.64;99352.84;5051513;28;19928;-36
2024/01/04 10:15:11;;;;;;;;;;;12.50;54.70;;;12.68;57.99;99366.88;5051333;28;19925;-37
2024/01/04 10:17:39;;;;;;;;;;;12.60;54.90;;;12.67;57.59;99371.75;5051519;28;19935;-36
2024/01/04 10:20:09;;;;;;;;;;;12.60;54.90;;;12.64;58.20;99372.34;5056412;28;19975;-37
2024/01/04 10:22:37;;;;;;;;;;;12.50;54.80;;;12.63;58.39;99370.56;5061523;28;20044;-37
2024/01/04 10:25:10;;;;;;;;;;;12.50;54.90;;;12.60;58.10;99369.34;5060505;28;20062;-36
2024/01/04 10:27:38;;;;;;;;;;;12.50;54.90;;;12.58;58.08;99369.22;5051932;28;19956;-37
2024/01/04 10:30:07;;;;;;;;;;;12.50;55.00;;;12.57;58.63;99372.47;5050688;28;19924;-35
2024/01/04 10:32:35;;;;;;;;;;;12.40;55.10;;;12.56;57.77;99378.22;5051702;28;19929;-35
2024/01/04 10:35:04;;;;;;;;;;;12.40;55.10;;;12.53;59.23;99377.88;5051439;28;19925;-35
2024/01/04 10:37:33;;;;;;;;;;;12.40;55.10;;;12.49;58.78;99376.69;5051466;28;19979;-36
2024/01/04 10:40:05;;;;;;;;;;;12.40;55.20;;;12.53;58.40;99377.88;5050648;28;19928;-36
2024/01/04 10:42:34;;;;;;;;;;;12.40;55.20;;;12.52;58.20;99381.13;5051400;28;19928;-36
2024/01/04 10:45:02;;;;;;;;;;;12.40;55.20;;;12.52;58.15;99386.16;5055073;28;19935;-35
2024/01/04 10:47:30;;;;;;;;;;;12.40;55.20;;;12.52;58.64;99386.16;5055131;28;20388;-36
2024/01/04 10:49:59;;;;;;;;;;;12.40;55.20;;;12.53;58.27;99390.44;5054728;28;19932;-35
2024/01/04 10:52:30;;;;;;;;;;;12.40;55.30;;;12.54;58.57;99384.69;5055215;28;19925;-35
2024/01/04 10:55:00;;;;;;;;;;;12.40;55.20;;;12.56;58.62;99398.31;5054791;28;19925;-36
2024/01/04 10:57:30;;;;;;;;;;;12.40;55.20;;;12.59;59.13;99403.63;5055380;28;19929;-35
2024/01/04 10:59:59;;;;;;;;;;;12.40;55.10;;;12.62;57.77;99398.94;5054183;28;19925;-35
2024/01/04 11:02:27;;;;;;;;;;;12.50;55.10;;;12.64;57.98;99402.50;5055421;28;20007;-36
2024/01/04 11:04:55;;;;;;;;;;;12.50;55.10;;;12.69;57.92;99408.88;5054741;28;20015;-36
2024/01/04 11:07:23;;;;;;;;;;;12.50;55.00;;;12.76;57.66;99413.78;5053774;28;19928;-35
2024/01/04 11:09:51;;;;;;;;;;;12.50;54.90;;;12.78;57.52;99417.31;5054261;28;20391;-35
2024/01/04 11:12:19;;;;;;;;;;;12.50;54.90;;;12.79;57.50;99404.03;5054785;28;20325;-35
2024/01/04 11:14:47;;;;;;;;;;;12.50;54.80;;;12.79;57.83;99409.06;5047830;28;19979;-35
2024/01/04 11:17:25;;;;;;;;;;;12.50;54.80;;;12.81;58.10;99406.72;5053968;28;19932;-36
2024/01/04 11:20:01;;;;;;;;;;;12.60;54.80;;;12.82;57.82;99414.41;5054025;28;19951;-37
2024/01/04 11:22:39;;;;;;;;;;;12.60;54.80;;;12.83;57.48;99423.72;5047863;28;19932;-37